Time;durP1;ratioP1;P1;durP2;ratioP2;P2;SDS_P1;SDS_P2;PMS_P1;PMS_P2;Temp;Humidity;BMP_temperature;BMP_pressure;BME280_temperature;BME280_humidity;BME280_pressure;Samples;Min_cycle;Max_cycle;Signal;HPM_P1;HPM_P2
2023/04/02 00:01:26;;;;;;;18.67;14.05;;;10.20;99.90;;;10.39;90.82;101145.75;4994769;28;20038;-67
2023/04/02 00:04:14;;;;;;;20.83;14.50;;;10.30;99.90;;;10.38;90.86;101150.16;4994047;28;20047;-67
2023/04/02 00:06:48;;;;;;;22.55;15.90;;;10.30;99.90;;;10.36;90.77;101149.28;4994599;28;20069;-67
2023/04/02 00:09:29;;;;;;;22.67;16.60;;;10.30;99.90;;;10.53;90.92;101154.59;4994492;28;20125;-67
2023/04/02 00:12:01;;;;;;;23.10;16.15;;;10.40;99.90;;;10.55;90.46;101155.47;4994190;28;20054;-67
2023/04/02 00:14:33;;;;;;;22.70;15.07;;;10.50;99.90;;;10.50;90.66;101167.81;4994244;28;20069;-67
2023/04/02 00:17:05;;;;;;;18.02;14.10;;;10.40;99.90;;;10.47;90.29;101165.16;4994426;28;20062;-66
2023/04/02 00:19:39;;;;;;;19.08;14.43;;;10.40;99.90;;;10.40;89.70;101168.66;4994143;28;20042;-67
2023/04/02 00:22:15;;;;;;;16.85;13.32;;;10.30;99.90;;;10.44;89.39;101176.63;4994344;28;20046;-67
2023/04/02 00:24:43;;;;;;;18.75;14.10;;;10.30;99.90;;;10.36;88.83;101174.81;4993967;28;20046;-67
2023/04/02 00:27:14;;;;;;;21.00;13.43;;;10.30;99.90;;;10.29;89.20;101181.00;4993918;28;20030;-67
2023/04/02 00:29:47;;;;;;;19.95;13.85;;;10.20;99.90;;;10.18;89.31;101169.53;4992717;28;20085;-67
2023/04/02 00:32:23;;;;;;;21.67;14.70;;;10.10;99.90;;;10.03;89.64;101165.03;4992891;28;20070;-67
2023/04/02 00:34:52;;;;;;;20.52;14.50;;;10.00;99.90;;;10.16;89.69;101185.41;4993879;28;20567;-67
2023/04/02 00:37:24;;;;;;;23.25;15.48;;;10.00;99.90;;;10.29;89.98;101181.88;4993796;28;20488;-67
2023/04/02 00:39:58;;;;;;;22.50;15.43;;;10.20;99.90;;;10.39;89.80;101194.25;4992783;28;20047;-67
2023/04/02 00:42:29;;;;;;;18.38;13.70;;;10.20;99.90;;;10.32;89.63;101173.06;4993800;28;20043;-67
2023/04/02 00:44:57;;;;;;;;;;;10.20;99.90;;;9.93;89.06;101195.84;4994406;28;20474;-67
2023/04/02 00:47:33;;;;;;;17.88;13.52;;;10.00;99.90;;;10.06;89.21;101198.53;4993737;28;19922;-67
2023/04/02 00:50:16;;;;;;;19.17;14.55;;;10.00;99.90;;;10.13;88.77;101214.44;4992735;28;20054;-67
2023/04/02 00:52:48;;;;;;;19.88;13.93;;;10.00;99.90;;;9.92;88.26;101212.59;4993949;28;20052;-67
2023/04/02 00:55:22;;;;;;;15.60;12.77;;;9.90;99.90;;;9.90;88.45;101222.28;4993587;28;20093;-67
2023/04/02 00:57:52;;;;;;;17.27;13.35;;;9.80;99.90;;;9.85;88.09;101221.34;4993842;28;20051;-67
2023/04/02 01:00:23;;;;;;;13.73;12.25;;;9.80;99.90;;;9.83;88.16;101222.25;4993721;28;20046;-67
2023/04/02 01:03:29;;;;;;;18.17;14.07;;;9.70;99.90;;;9.56;88.02;101183.38;4993840;28;20050;-67
2023/04/02 01:06:02;;;;;;;18.65;13.43;;;9.70;99.90;;;9.58;88.50;101231.78;4993408;28;20488;-67
2023/04/02 01:09:11;;;;;;;19.33;12.52;;;9.60;99.90;;;9.68;88.41;101235.34;4992401;28;20053;-67
2023/04/02 01:12:09;;;;;;;16.48;12.70;;;9.60;99.90;;;9.71;88.73;101248.59;4991833;28;20062;-67
2023/04/02 01:14:47;;;;;;;20.38;13.38;;;9.60;99.90;;;9.69;88.75;101238.03;4992114;28;20056;-67
2023/04/02 01:17:47;;;;;;;14.85;12.02;;;9.60;99.90;;;9.64;88.44;101252.94;4992198;28;20491;-67
2023/04/02 01:20:47;;;;;;;15.57;12.20;;;9.60;99.90;;;9.58;88.13;101263.47;4993305;28;20053;-67
2023/04/02 01:23:23;;;;;;;17.23;11.98;;;9.50;99.90;;;9.52;88.31;101278.41;4969596;28;20050;-67
2023/04/02 01:26:00;;;;;;;17.20;12.52;;;9.50;99.90;;;9.41;88.53;101254.56;4993723;28;20046;-67
2023/04/02 01:28:39;;;;;;;17.33;12.20;;;9.50;99.90;;;9.55;88.26;101274.03;4993372;28;20108;-67
2023/04/02 01:31:10;;;;;;;17.30;12.50;;;9.50;99.90;;;9.57;88.05;101267.00;4992183;28;20057;-67
2023/04/02 01:33:41;;;;;;;13.05;10.88;;;9.60;99.90;;;9.56;87.93;101273.16;4993337;28;20050;-67
2023/04/02 01:36:16;;;;;;;15.63;11.63;;;9.50;99.90;;;9.64;87.91;101278.50;4993525;28;20078;-67
2023/04/02 01:38:50;;;;;;;17.55;11.60;;;9.60;99.90;;;9.54;88.04;101293.38;4992205;28;20062;-67
2023/04/02 01:41:29;;;;;;;16.38;12.05;;;9.50;99.90;;;9.52;88.25;101300.44;4992069;28;20056;-67
2023/04/02 01:44:12;;;;;;;16.13;11.43;;;9.50;99.90;;;9.45;88.02;101295.97;4992243;28;20109;-67
2023/04/02 01:46:43;;;;;;;14.40;11.48;;;9.40;99.90;;;9.46;87.61;101295.09;4993024;28;20104;-67
2023/04/02 01:49:15;;;;;;;16.00;11.52;;;9.40;99.90;;;9.48;87.52;101297.75;4991997;28;20042;-67
2023/04/02 01:51:47;;;;;;;13.18;11.57;;;9.40;99.90;;;9.34;87.08;101291.47;4993347;28;20042;-67
2023/04/02 01:54:19;;;;;;;14.77;12.60;;;9.30;99.90;;;9.25;87.81;101310.78;4992277;28;20447;-66
2023/04/02 01:56:48;;;;;;;15.27;10.90;;;9.20;99.90;;;9.26;88.01;101349.50;4991922;28;20050;-67
2023/04/02 01:59:21;;;;;;;14.67;11.23;;;9.10;99.90;;;9.28;88.43;101305.53;4993261;28;20129;-67
2023/04/02 02:01:59;;;;;;;15.18;10.82;;;9.20;99.90;;;9.40;88.34;101324.09;4991957;28;20054;-67
2023/04/02 02:04:28;;;;;;;15.75;10.95;;;9.20;99.90;;;9.36;87.50;101319.66;4991853;28;20046;-67
2023/04/02 02:06:59;;;;;;;16.35;11.80;;;9.30;99.90;;;9.34;87.98;101309.97;4991684;28;20050;-67
2023/04/02 02:09:31;;;;;;;15.18;11.35;;;9.30;99.90;;;9.44;87.75;101328.53;4991857;28;20053;-67
2023/04/02 02:12:01;;;;;;;16.10;11.98;;;9.40;99.90;;;9.41;87.55;101331.13;4991841;28;20078;-67
2023/04/02 02:14:31;;;;;;;15.88;11.07;;;9.40;99.90;;;9.47;87.60;101335.56;4992825;28;20503;-66
2023/04/02 02:17:03;;;;;;;15.27;11.50;;;9.40;99.90;;;9.58;87.34;101344.47;4991841;28;20062;-67
2023/04/02 02:19:36;;;;;;;16.10;12.68;;;9.40;99.90;;;9.66;86.94;101351.56;4993042;28;20436;-67
2023/04/02 02:22:14;;;;;;;15.48;12.23;;;9.50;99.90;;;9.76;86.90;101355.16;4991769;28;20046;-67
2023/04/02 02:24:43;;;;;;;19.10;12.43;;;9.70;99.90;;;9.33;87.28;101324.91;4991730;28;20113;-67
2023/04/02 02:27:47;;;;;;;17.80;11.90;;;9.60;99.90;;;9.67;86.79;101366.56;4992650;28;20097;-67
2023/04/02 02:30:21;;;;;;;15.60;11.95;;;9.60;99.90;;;9.77;86.68;101363.13;4995236;28;20050;-67
2023/04/02 02:32:59;;;;;;;16.30;12.43;;;9.70;99.90;;;9.73;86.82;101358.69;4995436;28;20046;-67
2023/04/02 02:35:33;;;;;;;16.95;12.43;;;9.70;99.90;;;9.77;86.42;101367.50;4995092;28;20051;-67
2023/04/02 02:38:39;;;;;;;15.52;11.02;;;9.70;99.90;;;9.61;86.57;101368.25;4995070;28;20089;-67
2023/04/02 02:41:21;;;;;;;17.35;11.13;;;9.60;99.90;;;9.69;86.75;101383.31;4995351;28;20522;-67
2023/04/02 02:44:00;;;;;;;14.73;11.00;;;9.60;99.90;;;9.58;86.40;101382.31;4996184;28;20046;-67
2023/04/02 02:46:31;;;;;;;14.50;10.93;;;9.50;99.90;;;9.61;86.84;101374.44;4994858;28;20054;-67
2023/04/02 02:49:04;;;;;;;18.65;11.10;;;9.50;99.90;;;9.79;86.28;101393.03;4995232;28;20050;-67
2023/04/02 02:51:42;;;;;;;16.85;11.52;;;9.70;99.90;;;9.82;86.26;101402.75;4995109;28;20054;-66
2023/04/02 02:54:17;;;;;;;14.48;11.20;;;9.60;99.90;;;9.83;86.36;101408.03;4994826;28;20057;-67
2023/04/02 02:56:50;;;;;;;20.60;12.05;;;9.70;99.90;;;9.80;85.97;101408.03;4995716;28;20499;-67
2023/04/02 02:59:22;;;;;;;17.25;12.63;;;9.70;99.90;;;9.64;86.14;101400.84;4994701;28;20085;-67
2023/04/02 03:01:52;;;;;;;18.85;12.52;;;9.60;99.90;;;9.58;86.66;101416.66;4994808;28;20064;-67
2023/04/02 03:04:23;;;;;;;15.83;11.87;;;9.50;99.90;;;9.42;86.26;101417.41;4994585;28;20091;-66
2023/04/02 03:06:57;;;;;;;17.55;11.63;;;9.40;99.90;;;9.40;87.09;101419.16;4994480;28;20070;-67
2023/04/02 03:09:38;;;;;;;14.43;10.95;;;9.30;99.90;;;9.42;86.92;101427.06;4994532;28;20058;-67
2023/04/02 03:12:28;;;;;;;16.45;11.65;;;9.30;99.90;;;9.39;86.82;101429.69;4994500;28;20092;-67
2023/04/02 03:15:04;;;;;;;14.52;11.57;;;9.30;99.90;;;9.44;87.08;101443.81;4994357;28;20062;-67
2023/04/02 03:17:37;;;;;;;15.43;11.93;;;9.40;99.90;;;8.71;86.95;101315.56;4996166;28;20496;-67
2023/04/02 03:20:17;;;;;;;17.15;12.15;;;9.40;99.90;;;9.48;86.62;101459.72;4994314;28;20054;-67
2023/04/02 03:22:53;;;;;;;15.82;11.38;;;9.40;99.90;;;9.49;86.71;101458.81;4994247;28;20077;-67
2023/04/02 03:25:31;;;;;;;14.93;11.23;;;9.40;99.90;;;9.52;86.64;101456.22;4994214;28;20085;-67
2023/04/02 03:28:04;;;;;;;14.98;10.85;;;9.40;99.90;;;9.52;86.61;101457.97;4994033;28;20108;-67
2023/04/02 03:30:42;;;;;;;15.45;10.82;;;9.40;99.90;;;9.42;86.09;101470.22;4994095;28;20038;-67
2023/04/02 03:33:20;;;;;;;16.73;11.52;;;9.30;99.90;;;9.35;85.76;101476.28;4994003;28;20046;-67
2023/04/02 03:35:58;;;;;;;16.60;11.82;;;9.30;99.90;;;9.17;86.17;101486.66;4994025;28;20133;-67
2023/04/02 03:38:30;;;;;;;15.18;10.80;;;9.10;99.90;;;9.01;86.30;101490.88;4993799;28;20507;-67
2023/04/02 03:41:05;;;;;;;14.65;11.00;;;9.00;99.90;;;9.02;86.82;101492.63;4994374;28;20054;-67
2023/04/02 03:43:40;;;;;;;15.07;11.15;;;8.90;99.90;;;8.91;86.63;101514.47;4993896;28;20105;-66
2023/04/02 03:46:25;;;;;;;14.02;10.93;;;8.80;99.90;;;8.86;86.69;101505.63;4993743;28;20046;-67
2023/04/02 03:49:01;;;;;;;15.68;10.50;;;8.80;99.90;;;8.84;87.26;101508.25;4993756;28;20070;-67
2023/04/02 03:51:38;;;;;;;13.30;10.50;;;8.80;99.90;;;8.93;86.80;101534.75;4994947;28;20065;-67
2023/04/02 03:54:15;;;;;;;14.10;10.95;;;8.90;99.90;;;8.77;87.12;101522.22;4993837;28;20047;-66
2023/04/02 03:56:46;;;;;;;14.43;11.25;;;8.80;99.90;;;8.54;87.02;101517.47;4993592;28;20129;-66
2023/04/02 03:59:33;;;;;;;14.98;11.30;;;8.60;99.90;;;8.57;87.67;101526.34;4993532;28;20050;-66
2023/04/02 04:02:16;;;;;;;14.45;10.98;;;8.60;99.90;;;8.32;87.42;101515.41;4994916;28;20492;-67
2023/04/02 04:04:48;;;;;;;14.95;11.50;;;8.50;99.90;;;8.63;88.01;101542.22;4993466;28;20054;-67
2023/04/02 04:07:28;;;;;;;12.45;10.85;;;8.50;99.90;;;8.65;87.59;101553.69;4993323;28;20492;-67
2023/04/02 04:09:59;;;;;;;15.75;11.05;;;8.60;99.90;;;8.67;87.51;101559.00;4993880;28;20112;-67
2023/04/02 04:12:31;;;;;;;16.05;11.55;;;8.60;99.90;;;8.65;87.60;101568.66;4994891;28;20054;-66
2023/04/02 04:15:08;;;;;;;14.15;11.70;;;8.60;99.90;;;8.62;87.25;101553.66;4994680;28;20140;-67
2023/04/02 04:17:52;;;;;;;12.57;11.27;;;8.60;99.90;;;8.58;87.23;101566.75;4994607;28;20054;-66
2023/04/02 04:20:34;;;;;;;16.13;11.38;;;8.60;99.90;;;8.57;87.38;101575.56;4993313;28;20074;-66
2023/04/02 04:23:18;;;;;;;14.32;10.90;;;8.50;99.90;;;8.56;87.82;101579.94;4993160;28;20073;-66
2023/04/02 04:25:49;;;;;;;15.27;10.98;;;8.50;99.90;;;8.42;88.07;101568.28;4993032;28;20124;-66
2023/04/02 04:28:22;;;;;;;;;;;8.40;99.90;;;8.39;88.42;101580.53;4994884;28;20070;-67
2023/04/02 04:30:59;;;;;;;12.10;10.80;;;8.40;99.90;;;8.50;88.32;101586.84;4992967;28;19922;-67
2023/04/02 04:33:38;;;;;;;14.98;11.15;;;8.40;99.90;;;8.34;88.26;101595.41;4992960;28;20365;-67
2023/04/02 04:36:27;;;;;;;14.27;11.15;;;8.30;99.90;;;8.34;88.27;101587.50;4994226;28;20042;-67
2023/04/02 04:39:13;;;;;;;12.40;11.10;;;8.30;99.90;;;8.38;88.61;101592.81;4992797;28;20519;-67
2023/04/02 04:41:48;;;;;;;11.95;10.75;;;8.30;99.90;;;8.38;88.36;101595.44;4992839;28;20046;-67
2023/04/02 04:44:24;;;;;;;13.40;11.23;;;8.40;99.90;;;8.45;88.17;101607.88;4992708;28;20050;-67
2023/04/02 04:47:02;;;;;;;14.43;11.50;;;8.40;99.90;;;8.55;88.51;101611.56;4992897;28;20053;-67
2023/04/02 04:49:36;;;;;;;16.42;13.10;;;8.50;99.90;;;8.47;88.18;101629.88;4992688;28;20050;-67
2023/04/02 04:52:12;;;;;;;16.30;12.23;;;8.40;99.90;;;8.44;87.74;101626.31;4992518;28;20050;-67
2023/04/02 04:54:42;;;;;;;13.32;11.43;;;8.40;99.90;;;8.51;88.05;101639.63;4992552;28;20050;-66
2023/04/02 04:57:25;;;;;;;16.50;12.13;;;8.40;99.90;;;8.38;88.02;101640.25;4992558;28;20101;-67
2023/04/02 04:59:59;;;;;;;14.98;12.65;;;8.40;99.90;;;8.39;88.45;101636.78;4992533;28;20500;-67
2023/04/02 05:02:36;;;;;;;15.07;11.93;;;8.30;99.90;;;8.36;88.37;101634.09;4992402;28;20050;-66
2023/04/02 05:05:17;;;;;;;14.43;12.57;;;8.40;99.90;;;8.34;88.28;101648.13;4992379;28;20061;-67
2023/04/02 05:07:52;;;;;;;15.00;11.38;;;8.20;99.90;;;8.30;87.88;101651.56;4992057;28;20050;-67
2023/04/02 05:10:31;;;;;;;13.48;11.32;;;8.20;99.90;;;8.25;88.04;101669.00;4993674;28;20034;-66
2023/04/02 05:13:06;;;;;;;12.43;11.13;;;8.10;99.90;;;8.25;87.80;101672.53;4992602;28;20049;-66
2023/04/02 05:15:41;;;;;;;14.27;11.00;;;8.20;99.90;;;8.18;86.94;101682.06;4992101;28;20519;-66
2023/04/02 05:18:23;;;;;;;12.05;10.55;;;8.20;99.90;;;8.14;87.15;101685.50;4992024;28;20042;-66
2023/04/02 05:20:54;;;;;;;;;;;8.10;99.90;;;8.13;87.25;101688.09;4992931;28;20076;-66
2023/04/02 05:23:27;;;;;;;13.52;10.30;;;8.10;99.90;;;8.13;86.76;101701.25;4992319;28;19951;-66
2023/04/02 05:26:06;;;;;;;11.07;9.93;;;8.10;99.90;;;8.03;86.98;101710.75;4992245;28;20054;-67
2023/04/02 05:28:43;;;;;;;13.32;10.15;;;8.00;99.90;;;7.90;86.97;101689.41;4992070;28;20061;-67
2023/04/02 05:31:18;;;;;;;11.88;9.48;;;7.90;99.90;;;7.84;87.50;101718.28;4993483;28;20121;-66
2023/04/02 05:33:50;;;;;;;12.75;10.13;;;7.80;99.90;;;7.84;87.71;101718.28;4992221;28;20054;-66
2023/04/02 05:36:25;;;;;;;12.85;9.95;;;7.80;99.90;;;7.84;87.85;101705.97;4992164;28;20080;-66
2023/04/02 05:38:58;;;;;;;13.23;10.38;;;7.80;99.90;;;7.86;87.83;101712.16;4991829;28;20138;-67
2023/04/02 05:41:40;;;;;;;14.20;10.63;;;7.80;99.90;;;7.95;87.67;101728.19;4991983;28;20054;-66
2023/04/02 05:44:18;;;;;;;12.80;10.85;;;7.90;99.90;;;7.95;87.97;101725.53;4991972;28;20058;-66
2023/04/02 05:46:53;;;;;;;13.70;10.02;;;7.80;99.90;;;7.85;87.16;101731.47;4993337;28;20467;-67
2023/04/02 05:49:29;;;;;;;11.90;10.23;;;7.80;99.90;;;7.84;87.53;101737.59;4991899;28;20496;-67
2023/04/02 05:52:03;;;;;;;13.93;10.75;;;7.80;99.90;;;7.92;87.12;101743.00;4991938;28;20570;-66
2023/04/02 05:54:37;;;;;;;15.73;11.50;;;7.90;99.90;;;7.79;87.07;101740.97;4991938;28;20100;-66
2023/04/02 05:57:13;;;;;;;13.50;10.52;;;7.80;99.90;;;7.79;87.11;101754.16;4991883;28;20046;-67
2023/04/02 05:59:46;;;;;;;13.05;10.70;;;7.70;99.90;;;7.65;87.23;101764.38;4991935;28;20054;-66
2023/04/02 06:02:22;;;;;;;13.45;11.50;;;7.60;99.90;;;7.61;87.22;101761.66;4992183;28;20046;-67
2023/04/02 06:04:58;;;;;;;15.15;10.95;;;7.60;99.90;;;7.54;87.30;101750.13;4995539;28;20500;-67
2023/04/02 06:07:34;;;;;;;14.90;10.85;;;7.60;99.90;;;7.65;87.23;101774.91;4995537;28;20057;-66
2023/04/02 06:10:10;;;;;;;15.00;12.18;;;7.60;99.90;;;7.72;86.94;101787.38;4995450;28;20137;-67
2023/04/02 06:12:48;;;;;;;15.63;11.00;;;7.60;99.90;;;7.67;86.76;101780.22;4995560;28;20057;-67
2023/04/02 06:15:22;;;;;;;14.77;10.82;;;7.70;99.90;;;7.59;86.30;101792.34;4995251;28;20078;-66
2023/04/02 06:18:01;;;;;;;14.50;9.80;;;7.60;99.90;;;7.46;85.62;101816.59;4995418;28;20057;-67
2023/04/02 06:20:31;;;;;;;13.27;10.00;;;7.50;99.90;;;7.41;85.41;101812.97;4995631;28;20081;-66
2023/04/02 06:23:04;;;;;;;14.55;9.82;;;7.40;99.90;;;7.25;84.55;101823.13;4995180;28;20054;-67
2023/04/02 06:25:37;;;;;;;15.55;10.05;;;7.30;99.90;;;7.32;84.33;101822.41;4995499;28;20101;-67
2023/04/02 06:28:15;;;;;;;12.93;9.18;;;7.40;99.90;;;7.42;83.85;101839.31;4995024;28;20054;-66
2023/04/02 06:30:53;;;;;;;12.65;10.27;;;7.40;99.90;;;7.30;83.48;101852.16;4994927;28;20053;-67
2023/04/02 06:33:22;;;;;;;13.63;9.48;;;7.30;99.90;;;7.29;82.85;101847.78;4994936;28;20607;-67
2023/04/02 06:35:52;;;;;;;13.45;9.27;;;7.30;99.90;;;7.32;82.88;101852.25;4994821;28;20057;-66
2023/04/02 06:38:31;;;;;;;13.98;9.13;;;7.30;99.90;;;7.26;82.78;101851.22;4995047;28;20136;-66
2023/04/02 06:41:03;;;;;;;12.93;9.77;;;7.30;99.90;;;7.25;82.90;101864.34;4994711;28;20574;-65
2023/04/02 06:43:55;;;;;;;12.68;9.50;;;7.20;99.90;;;7.02;82.63;101860.25;4994934;28;20054;-66
2023/04/02 06:46:48;;;;;;;13.82;9.13;;;7.00;99.90;;;6.65;82.85;101826.84;4994515;28;20570;-66
2023/04/02 06:49:25;;;;;;;14.45;9.20;;;6.80;99.90;;;6.74;83.08;101868.22;4995908;28;20055;-64
2023/04/02 06:52:00;;;;;;;12.77;9.40;;;6.80;99.90;;;6.70;83.10;101840.97;4994693;28;20507;-65
2023/04/02 06:54:30;;;;;;;14.57;9.70;;;6.80;99.90;;;6.56;83.06;101854.63;4994641;28;20444;-65
2023/04/02 06:57:04;;;;;;;14.63;9.43;;;6.70;99.90;;;6.55;82.72;101871.22;4994657;28;20050;-65
2023/04/02 06:59:40;;;;;;;12.55;9.98;;;6.60;99.90;;;6.45;83.17;101869.16;4994675;28;20062;-64
2023/04/02 07:02:29;;;;;;;14.65;9.73;;;6.50;99.90;;;6.60;83.35;101895.91;4994165;28;20052;-64
2023/04/02 07:05:05;;;;;;;12.63;9.20;;;6.60;99.90;;;6.30;83.33;101857.41;4994655;28;20065;-65
2023/04/02 07:07:36;;;;;;;11.27;8.98;;;6.50;99.90;;;6.57;83.19;101901.06;4994564;28;20046;-64
2023/04/02 07:10:09;;;;;;;12.98;9.80;;;6.50;99.90;;;6.53;82.98;101889.56;4994367;28;20050;-65
2023/04/02 07:12:37;;;;;;;12.98;9.30;;;6.50;99.90;;;6.48;83.09;101919.19;4995642;28;20046;-64
2023/04/02 07:15:11;;;;;;;13.32;9.20;;;6.50;99.90;;;6.46;82.88;101928.78;4993552;28;20054;-65
2023/04/02 07:17:39;;;;;;;13.82;9.05;;;6.60;99.90;;;6.64;82.86;101932.81;4994232;28;20058;-64
2023/04/02 07:20:26;;;;;;;16.25;9.27;;;6.60;99.90;;;6.82;82.33;101930.72;4995018;28;20054;-65
2023/04/02 07:22:57;;;;;;;11.93;8.90;;;6.80;99.90;;;6.89;82.13;101940.53;4993844;28;20050;-66
2023/04/02 07:25:26;;;;;;;11.45;8.90;;;6.90;99.90;;;7.02;81.44;101944.41;4995081;28;20125;-65
2023/04/02 07:27:56;;;;;;;11.98;9.18;;;7.00;99.90;;;6.95;81.00;101947.72;4995176;28;20096;-67
2023/04/02 07:30:25;;;;;;;12.18;9.02;;;7.00;99.90;;;6.82;80.81;101943.84;4994442;28;20073;-66
2023/04/02 07:32:54;;;;;;;10.68;8.55;;;6.90;99.90;;;6.74;80.57;101958.53;4994919;28;20140;-66
2023/04/02 07:35:22;;;;;;;13.18;8.98;;;6.80;99.90;;;6.73;80.45;101962.00;4995069;28;20117;-65
2023/04/02 07:37:51;;;;;;;12.48;9.20;;;6.70;99.90;;;6.80;80.60;101973.56;4995107;28;20126;-66
2023/04/02 07:40:23;;;;;;;14.00;9.13;;;6.80;99.90;;;6.79;80.67;101974.44;4994602;28;20054;-66
2023/04/02 07:42:51;;;;;;;14.07;8.82;;;6.80;99.90;;;6.76;80.47;101991.00;4994755;28;20074;-66
2023/04/02 07:45:20;;;;;;;13.73;8.15;;;6.80;99.90;;;6.74;80.57;101987.44;4995043;28;20054;-65
2023/04/02 07:47:50;;;;;;;15.52;8.63;;;6.70;99.90;;;6.64;80.32;101998.53;4994629;28;20048;-65
2023/04/02 07:50:19;;;;;;;12.73;8.70;;;6.70;99.90;;;6.70;80.53;102001.34;4994943;28;20104;-65
2023/04/02 07:52:47;;;;;;;14.93;9.43;;;6.70;99.90;;;6.78;80.10;102006.81;4994892;28;20038;-66
2023/04/02 07:55:16;;;;;;;12.45;9.00;;;6.70;99.90;;;6.86;80.12;102016.72;4994800;28;20046;-67
2023/04/02 07:57:50;;;;;;;15.10;8.57;;;6.80;99.90;;;6.77;79.97;102002.44;4994721;28;20448;-66
2023/04/02 08:00:21;;;;;;;11.52;8.80;;;6.80;99.90;;;6.65;80.00;102021.34;4994669;28;20046;-64
2023/04/02 08:02:51;;;;;;;12.23;8.23;;;6.70;99.90;;;6.62;80.87;102013.38;4994734;28;20492;-67
2023/04/02 08:05:21;;;;;;;11.52;8.35;;;6.60;99.90;;;6.48;80.17;102016.44;4994637;28;20038;-65
2023/04/02 08:07:54;;;;;;;11.00;8.20;;;6.50;99.90;;;6.53;80.53;102020.09;4994339;28;20130;-67
2023/04/02 08:10:23;;;;;;;12.00;8.40;;;6.50;99.90;;;6.56;81.08;102021.09;4994493;28;20046;-67
2023/04/02 08:12:51;;;;;;;12.00;8.70;;;6.60;99.90;;;6.46;80.88;102007.63;4994702;28;20058;-67
2023/04/02 08:15:20;;;;;;;13.90;8.02;;;6.60;99.90;;;6.47;80.54;102033.94;4992861;28;20085;-65
2023/04/02 08:17:50;;;;;;;10.73;7.80;;;6.50;99.90;;;6.46;81.13;102040.06;4994001;28;20054;-66
2023/04/02 08:20:21;;;;;;;13.25;9.00;;;6.50;99.90;;;6.61;81.37;102051.03;4994477;28;20050;-66
2023/04/02 08:22:50;;;;;;;17.70;8.20;;;6.60;99.90;;;5.99;80.96;101948.34;4994062;28;20063;-65
2023/04/02 08:25:18;;;;;;;12.10;8.18;;;6.60;99.90;;;6.61;81.30;102058.00;4992248;28;20047;-66
2023/04/02 08:27:48;;;;;;;10.90;8.18;;;6.60;99.90;;;6.55;80.76;102063.97;4993056;28;20526;-65
2023/04/02 08:30:18;;;;;;;8.67;7.53;;;6.50;99.90;;;6.73;81.18;102074.16;4994049;28;20049;-66
2023/04/02 08:32:46;;;;;;;10.60;7.63;;;6.70;99.90;;;6.56;80.83;102070.13;4994110;28;20492;-67
2023/04/02 08:35:17;;;;;;;11.90;7.60;;;6.60;99.90;;;6.57;80.75;102075.44;4993815;28;20409;-65
2023/04/02 08:37:45;;;;;;;12.38;8.13;;;6.50;99.90;;;6.74;80.74;102060.16;4993819;28;20105;-65
2023/04/02 08:40:24;;;;;;;11.60;7.35;;;6.70;99.90;;;6.61;80.44;102082.56;4993683;28;20046;-67
2023/04/02 08:43:09;;;;;;;8.45;7.63;;;6.60;99.90;;;6.58;80.04;102066.69;4993688;28;20049;-66
2023/04/02 08:45:53;;;;;;;10.85;7.30;;;6.60;99.90;;;6.63;79.68;102085.25;4993822;28;20093;-67
2023/04/02 08:48:22;;;;;;;10.82;8.10;;;6.60;99.90;;;6.78;79.75;102090.97;4992611;28;20565;-66
2023/04/02 08:50:58;;;;;;;9.35;7.60;;;6.70;99.90;;;6.65;79.10;102073.94;4993828;28;20477;-67
2023/04/02 08:53:32;;;;;;;10.20;8.82;;;6.80;99.90;;;6.69;79.40;102099.47;4993571;28;20149;-67
2023/04/02 08:56:07;;;;;;;15.07;8.13;;;6.70;99.90;;;6.72;79.55;102106.53;4993719;28;20405;-68
2023/04/02 08:58:41;;;;;;;11.63;7.65;;;6.70;99.90;;;6.81;79.28;102125.25;4992653;28;20074;-68
2023/04/02 09:01:22;;;;;;;9.52;7.95;;;6.80;99.90;;;6.61;78.83;102102.69;4993691;28;20049;-66
2023/04/02 09:03:54;;;;;;;9.43;8.13;;;6.70;99.90;;;6.67;78.71;102123.91;4991488;28;20050;-65
2023/04/02 09:06:26;;;;;;;9.80;8.02;;;6.70;99.90;;;6.39;78.74;102136.19;4993461;28;20443;-68
2023/04/02 09:08:56;;;;;;;9.75;7.10;;;6.50;99.90;;;6.43;78.36;102138.94;4993894;28;20046;-69
2023/04/02 09:11:33;;;;;;;8.57;7.57;;;6.40;99.90;;;6.64;78.26;102142.25;4993134;28;20074;-67
2023/04/02 09:14:09;;;;;;;10.55;6.97;;;6.60;99.90;;;6.52;77.58;102157.63;4993117;28;20057;-69
2023/04/02 09:16:44;;;;;;;10.27;7.65;;;6.50;99.90;;;6.60;78.44;102143.84;4993242;28;20074;-66
2023/04/02 09:19:18;;;;;;;9.85;7.57;;;6.50;99.90;;;6.89;78.63;102163.22;4993206;28;20108;-68
2023/04/02 09:22:02;;;;;;;13.10;7.75;;;6.80;99.90;;;6.63;76.99;102154.47;4993471;28;20050;-69
2023/04/02 09:24:31;;;;;;;11.18;7.90;;;6.70;99.90;;;6.56;76.82;102149.88;4993265;28;20046;-67
2023/04/02 09:26:59;;;;;;;9.45;6.93;;;6.60;99.90;;;6.85;76.92;102169.22;4993334;28;20471;-68
2023/04/02 09:29:40;;;;;;;8.77;7.90;;;6.80;99.90;;;7.02;76.56;102166.25;4993351;28;20050;-68
2023/04/02 09:32:48;;;;;;;11.85;7.85;;;6.90;99.90;;;7.08;75.59;102165.56;4992893;28;20073;-68
2023/04/02 09:35:19;;;;;;;9.02;6.95;;;7.00;99.90;;;7.43;75.18;102180.66;4993199;28;20052;-64
2023/04/02 09:38:19;;;;;;;13.15;7.07;;;7.40;99.90;;;7.56;72.92;102174.88;4996125;28;20042;-66
2023/04/02 09:40:51;;;;;;;11.82;7.07;;;7.50;99.90;;;7.69;72.83;102173.47;4997300;28;20052;-68
2023/04/02 09:43:23;;;;;;;11.60;8.25;;;7.60;99.90;;;7.82;72.11;102187.03;4995631;28;20050;-69
2023/04/02 09:46:01;;;;;;;7.43;6.63;;;7.70;99.90;;;7.90;71.06;102187.25;4996926;28;20052;-68
2023/04/02 09:48:33;;;;;;;9.00;7.22;;;7.80;99.90;;;8.16;71.77;102195.03;4996980;28;20113;-69
2023/04/02 09:51:13;;;;;;;10.75;6.80;;;8.10;99.90;;;8.56;71.63;102198.69;4996864;28;20467;-68
2023/04/02 09:53:46;;;;;;;7.82;6.63;;;8.40;99.90;;;8.69;69.72;102200.81;4997002;28;20038;-68
2023/04/02 09:56:17;;;;;;;13.30;6.57;;;8.70;99.90;;;8.95;69.60;102205.84;4997035;28;20094;-65
2023/04/02 09:59:02;;;;;;;13.32;7.20;;;8.90;99.90;;;9.48;69.74;102219.38;4996413;28;20047;-67
2023/04/02 10:01:33;;;;;;;11.63;7.43;;;9.30;99.90;;;9.60;66.85;102212.56;4996716;28;20039;-68
2023/04/02 10:04:04;;;;;;;9.75;6.15;;;9.60;99.90;;;9.89;66.39;102211.41;4996695;28;20039;-69
2023/04/02 10:06:34;;;;;;;8.65;6.00;;;9.80;99.90;;;10.18;66.29;102219.06;4996366;28;20054;-67
2023/04/02 10:09:30;;;;;;;11.45;5.82;;;10.10;99.90;;;10.18;63.58;102208.50;4996366;28;20085;-67
2023/04/02 10:12:00;;;;;;;8.73;6.00;;;10.20;99.90;;;10.24;62.49;102219.19;4996437;28;20108;-70
2023/04/02 10:14:34;;;;;;;9.00;5.90;;;10.20;99.90;;;10.12;62.60;102193.41;4996481;28;20046;-69
2023/04/02 10:17:10;;;;;;;8.75;6.47;;;10.30;99.90;;;10.44;62.71;102228.34;4997009;28;20104;-69
2023/04/02 10:19:42;;;;;;;9.57;6.05;;;10.40;99.90;;;10.48;61.77;102227.56;4996549;28;20042;-70
2023/04/02 10:22:15;;;;;;;9.20;5.93;;;10.50;99.90;;;10.32;62.14;102239.59;4996454;28;20455;-70
2023/04/02 10:24:45;;;;;;;10.98;6.55;;;10.30;99.90;;;10.64;62.01;102237.53;4996837;28;20088;-75
2023/04/02 10:27:24;;;;;;;9.18;5.93;;;10.60;99.90;;;10.68;60.92;102229.66;4995369;28;20050;-72
2023/04/02 10:30:09;;;;;;;8.85;6.47;;;10.60;99.90;;;10.63;60.41;102251.63;4996343;28;20050;-71
2023/04/02 10:32:44;;;;;;;9.40;5.95;;;10.60;99.90;;;10.74;59.62;102242.13;4996671;28;20069;-70
2023/04/02 10:35:28;;;;;;;13.07;6.10;;;10.60;99.90;;;10.83;60.39;102269.66;4996273;28;20145;-67
2023/04/02 10:38:13;;;;;;;9.65;6.53;;;10.70;99.90;;;10.66;59.13;102272.88;4996437;28;20046;-68
2023/04/02 10:40:48;;;;;;;13.40;6.18;;;10.70;99.90;;;10.46;59.06;102243.41;4995840;28;20531;-68
2023/04/02 10:43:43;;;;;;;12.55;6.03;;;10.60;99.90;;;10.99;60.80;102269.91;4995852;28;20057;-69
2023/04/02 10:46:20;;;;;;;9.55;6.28;;;10.80;99.90;;;11.25;59.82;102274.72;4995664;28;20057;-69
2023/04/02 10:49:00;;;;;;;;;;;11.10;99.90;;;11.38;58.76;102294.38;4994539;28;20062;-71
2023/04/02 10:51:39;;;;;;;12.77;6.53;;;11.30;99.90;;;11.24;58.88;102283.56;4995944;28;19925;-70